createdAt,value
2022-12-01T00:00:22.583Z,101133.72
2022-12-01T00:03:25.628Z,101139.75
2022-12-01T00:06:27.969Z,101141.81
2022-12-01T00:09:49.409Z,101152.50
2022-12-01T00:13:00.837Z,101132.09
2022-12-01T00:16:11.905Z,101143.59
2022-12-01T00:19:14.219Z,101142.19
2022-12-01T00:22:16.783Z,101135.44
2022-12-01T00:25:20.432Z,101157.03
2022-12-01T00:28:22.976Z,101157.25
2022-12-01T00:31:27.102Z,101158.50
2022-12-01T00:34:29.877Z,101155.87
2022-12-01T00:37:34.265Z,101158.28
2022-12-01T00:40:36.787Z,101157.44
2022-12-01T00:43:39.963Z,101159.84
2022-12-01T00:46:42.708Z,101139.44
2022-12-01T00:49:48.120Z,101160.09
2022-12-01T00:52:50.974Z,101162.50
2022-12-01T00:55:56.203Z,101168.53
2022-12-01T00:58:58.827Z,101170.94
2022-12-01T01:02:01.403Z,101174.78
2022-12-01T01:05:04.339Z,101173.97
2022-12-01T01:08:09.303Z,101147.97
2022-12-01T01:11:12.316Z,101169.28
2022-12-01T01:14:15.322Z,101171.81
2022-12-01T01:17:17.937Z,101167.38
2022-12-01T01:20:20.855Z,101162.37
2022-12-01T01:23:23.672Z,101166.44
2022-12-01T01:26:29.391Z,101155.66
2022-12-01T01:29:32.742Z,101159.72
2022-12-01T01:32:35.238Z,101144.91
2022-12-01T01:35:38.081Z,101156.03
2022-12-01T01:38:40.389Z,101160.97
2022-12-01T01:41:43.075Z,101140.03
2022-12-01T01:44:57.213Z,101140.75
2022-12-01T01:48:00.795Z,101157.50
2022-12-01T01:51:03.821Z,101161.56
2022-12-01T01:54:10.195Z,101166.34
2022-12-01T01:57:17.017Z,101170.31
2022-12-01T02:00:21.660Z,101145.06
2022-12-01T02:03:25.140Z,101156.19
2022-12-01T02:06:27.870Z,101141.69
2022-12-01T02:09:30.193Z,101157.50
2022-12-01T02:12:41.581Z,101155.22
2022-12-01T02:15:52.654Z,101151.25
2022-12-01T02:19:33.757Z,101156.28
2022-12-01T02:23:00.289Z,101157.34
2022-12-01T02:26:11.584Z,101158.78
2022-12-01T02:29:38.424Z,101167.62
2022-12-01T02:32:44.011Z,101163.69
2022-12-01T02:35:55.360Z,101152.78
2022-12-01T02:39:09.858Z,101161.88
2022-12-01T02:42:36.105Z,101160.19
2022-12-01T02:45:49.484Z,101158.97
2022-12-01T02:48:54.933Z,101160.69
2022-12-01T02:51:58.925Z,101137.09
2022-12-01T02:55:01.181Z,101147.88
2022-12-01T02:58:14.224Z,101143.69
2022-12-01T03:01:46.043Z,101116.41
2022-12-01T03:05:06.860Z,101138.19
2022-12-01T03:08:46.981Z,101140.72
2022-12-01T03:12:21.984Z,101143.69
2022-12-01T03:15:47.715Z,101143.22
2022-12-01T03:19:25.629Z,101155.44
2022-12-01T03:22:41.713Z,101129.09
2022-12-01T03:25:48.645Z,101138.06
2022-12-01T03:28:56.628Z,101142.63
2022-12-01T03:32:06.264Z,101141.06
2022-12-01T03:35:16.177Z,101141.94
2022-12-01T03:38:24.274Z,101110.69
2022-12-01T03:41:35.351Z,101133.88
2022-12-01T03:44:51.905Z,101134.38
2022-12-01T03:47:54.381Z,101114.59
2022-12-01T03:51:11.625Z,101133.97
2022-12-01T03:54:23.144Z,101141.13
2022-12-01T03:57:34.838Z,101112.06
2022-12-01T04:00:37.997Z,101113.41
2022-12-01T04:03:40.666Z,101109.78
2022-12-01T04:06:47.396Z,101106.69
2022-12-01T04:09:50.172Z,101129.78
2022-12-01T04:12:58.961Z,101134.81
2022-12-01T04:16:01.670Z,101132.97
2022-12-01T04:19:04.069Z,101126.91
2022-12-01T04:22:06.690Z,101124.03
2022-12-01T04:25:10.185Z,101099.59
2022-12-01T04:28:12.696Z,101123.19
2022-12-01T04:31:15.009Z,101118.00
2022-12-01T04:34:17.621Z,101113.09
2022-12-01T04:37:20.425Z,101098.13
2022-12-01T04:40:22.954Z,101128.63
2022-12-01T04:43:25.242Z,101110.41
2022-12-01T04:46:27.968Z,101125.50
2022-12-01T04:49:30.956Z,101136.41
2022-12-01T04:52:37.318Z,101140.69
2022-12-01T04:55:39.639Z,101141.78
2022-12-01T04:58:43.315Z,101162.41
2022-12-01T05:01:48.159Z,101164.53
2022-12-01T05:04:50.916Z,101137.38
2022-12-01T05:07:53.192Z,101149.25
2022-12-01T05:10:56.715Z,101143.62
2022-12-01T05:13:59.679Z,101123.25
2022-12-01T05:17:02.442Z,101141.97
2022-12-01T05:20:23.862Z,101133.97
2022-12-01T05:23:29.022Z,101149.44
2022-12-01T05:26:31.282Z,101122.59
2022-12-01T05:29:34.242Z,101149.53
2022-12-01T05:32:36.645Z,101154.16
2022-12-01T05:35:39.249Z,101154.34
2022-12-01T05:38:41.577Z,101123.09
2022-12-01T05:41:44.107Z,101147.84
2022-12-01T05:44:46.331Z,101122.69
2022-12-01T05:47:48.828Z,101146.72
2022-12-01T05:50:51.556Z,101147.19
2022-12-01T05:53:54.110Z,101152.28
2022-12-01T05:56:56.429Z,101150.72
2022-12-01T05:59:59.302Z,101133.16
2022-12-01T06:03:02.214Z,101156.25
2022-12-01T06:06:04.882Z,101154.97
2022-12-01T06:09:08.293Z,101141.25
2022-12-01T06:12:10.854Z,101149.78
2022-12-01T06:15:14.127Z,101156.50
2022-12-01T06:18:16.703Z,101143.06
2022-12-01T06:21:19.156Z,101170.06
2022-12-01T06:24:21.782Z,101179.44
2022-12-01T06:27:24.321Z,101175.87
2022-12-01T06:30:26.949Z,101182.81
2022-12-01T06:33:29.243Z,101186.44
2022-12-01T06:36:31.773Z,101179.69
2022-12-01T06:39:34.015Z,101177.22
2022-12-01T06:42:36.550Z,101183.50
2022-12-01T06:45:38.865Z,101177.47
2022-12-01T06:48:41.583Z,101152.03
2022-12-01T06:51:43.875Z,101175.38
2022-12-01T06:54:46.519Z,101149.09
2022-12-01T06:57:49.205Z,101172.56
2022-12-01T07:00:52.509Z,101173.38
2022-12-01T07:03:55.159Z,101179.03
2022-12-01T07:06:57.736Z,101148.16
2022-12-01T07:09:59.991Z,101155.09
2022-12-01T07:13:02.586Z,101171.44
2022-12-01T07:16:06.395Z,101153.50
2022-12-01T07:19:09.606Z,101151.69
2022-12-01T07:22:11.874Z,101159.47
2022-12-01T07:25:14.697Z,101184.88
2022-12-01T07:28:16.913Z,101164.19
2022-12-01T07:31:20.730Z,101188.50
2022-12-01T07:34:22.993Z,101180.38
2022-12-01T07:37:25.554Z,101167.34
2022-12-01T07:40:27.794Z,101181.44
2022-12-01T07:43:32.079Z,101186.00
2022-12-01T07:46:34.562Z,101178.56
2022-12-01T07:49:38.132Z,101178.00
2022-12-01T07:52:40.383Z,101177.06
2022-12-01T07:55:48.703Z,101164.25
2022-12-01T07:58:51.482Z,101169.88
2022-12-01T08:01:54.182Z,101167.03
2022-12-01T08:04:56.787Z,101182.50
2022-12-01T08:07:59.262Z,101191.72
2022-12-01T08:11:04.317Z,101191.53
2022-12-01T08:14:06.776Z,101192.56
2022-12-01T08:17:09.616Z,101192.00
2022-12-01T08:20:12.476Z,101197.66
2022-12-01T08:23:15.028Z,101182.72
2022-12-01T08:26:19.882Z,101168.47
2022-12-01T08:29:22.407Z,101187.06
2022-12-01T08:32:24.802Z,101170.38
2022-12-01T08:35:27.402Z,101184.06
2022-12-01T08:38:29.795Z,101191.12
2022-12-01T08:41:32.504Z,101172.19
2022-12-01T08:44:34.992Z,101192.44
2022-12-01T08:47:37.634Z,101193.53
2022-12-01T08:50:39.960Z,101198.78
2022-12-01T08:53:46.039Z,101177.09
2022-12-01T08:56:48.494Z,101196.00
2022-12-01T08:59:51.543Z,101194.19
2022-12-01T09:02:54.043Z,101188.97
2022-12-01T09:06:02.396Z,101181.44
2022-12-01T09:09:05.255Z,101181.88
2022-12-01T09:12:09.114Z,101172.69
2022-12-01T09:15:11.480Z,101187.03
2022-12-01T09:18:13.979Z,101191.38
2022-12-01T09:21:25.409Z,101167.91
2022-12-01T09:24:28.347Z,101187.41
2022-12-01T09:27:30.616Z,101184.28
2022-12-01T09:30:35.459Z,101171.28
2022-12-01T09:33:38.734Z,101168.47
2022-12-01T09:36:41.685Z,101151.00
2022-12-01T09:39:46.357Z,101153.28
2022-12-01T09:42:49.017Z,101158.84
2022-12-01T09:46:02.291Z,101161.06
2022-12-01T09:49:12.258Z,101163.91
2022-12-01T09:52:18.076Z,101138.22
2022-12-01T09:55:23.435Z,101161.50
2022-12-01T09:58:30.866Z,101141.91
2022-12-01T10:01:39.103Z,101157.22
2022-12-01T10:04:46.262Z,101129.97
2022-12-01T10:08:05.161Z,101145.50
2022-12-01T10:11:40.307Z,101126.25
2022-12-01T10:14:48.620Z,101145.03
2022-12-01T10:18:01.833Z,101126.59
2022-12-01T10:21:04.059Z,101124.69
2022-12-01T10:24:16.946Z,101133.44
2022-12-01T10:27:37.435Z,101142.97
2022-12-01T10:30:50.121Z,101136.62
2022-12-01T10:34:00.664Z,101131.78
2022-12-01T11:24:42.296Z,101089.94
2022-12-01T11:27:54.184Z,101089.94
2022-12-01T11:31:03.778Z,101075.62
2022-12-01T11:34:28.535Z,101082.62
2022-12-01T11:38:13.271Z,101078.19
2022-12-01T11:41:28.363Z,101062.12
2022-12-01T11:44:50.978Z,101077.41
2022-12-01T11:48:28.001Z,101075.88
2022-12-01T11:51:37.530Z,101074.34
2022-12-01T11:55:14.359Z,101067.87
2022-12-01T11:58:16.685Z,101065.69
2022-12-01T12:01:44.208Z,101064.88
2022-12-01T12:04:55.780Z,101070.34
2022-12-01T12:08:30.874Z,101066.91
2022-12-01T12:11:42.455Z,101066.00
2022-12-01T12:14:48.511Z,101073.53
2022-12-01T12:18:09.372Z,101066.63
2022-12-01T12:21:20.660Z,101068.78
2022-12-01T12:25:04.849Z,101062.50
2022-12-01T12:28:33.357Z,101055.28
2022-12-01T12:31:45.504Z,101049.47
2022-12-01T12:35:02.861Z,101058.03
2022-12-01T12:38:11.096Z,101055.06
2022-12-01T12:41:35.515Z,101058.19
2022-12-01T12:44:49.648Z,101061.00
2022-12-01T12:48:23.414Z,101060.34
2022-12-01T12:51:39.510Z,101056.81
2022-12-01T12:54:57.334Z,101041.59
2022-12-01T12:58:16.804Z,101058.31
2022-12-01T13:01:24.767Z,101059.94
2022-12-01T13:04:52.247Z,101060.25
2022-12-01T13:08:09.170Z,101047.13
2022-12-01T13:11:36.128Z,101050.19
2022-12-01T13:14:43.819Z,101047.44
2022-12-01T13:18:18.507Z,101043.84
2022-12-01T13:21:22.488Z,101046.66
2022-12-01T13:24:29.424Z,101043.75
2022-12-01T13:27:38.437Z,101045.41
2022-12-01T13:30:41.004Z,101044.31
2022-12-01T13:33:57.338Z,101044.03
2022-12-01T13:36:59.991Z,101040.94
2022-12-01T13:40:24.640Z,101045.12
2022-12-01T13:43:27.192Z,101046.28
2022-12-01T13:47:02.608Z,101046.53
2022-12-01T13:50:39.094Z,101055.69
2022-12-01T13:54:28.550Z,101047.81
2022-12-01T13:57:33.419Z,101051.19
2022-12-01T14:00:36.224Z,101044.81
2022-12-01T14:03:40.631Z,101025.06
2022-12-01T14:06:52.544Z,101039.50
2022-12-01T14:10:06.322Z,101033.84
2022-12-01T14:13:19.481Z,101037.13
2022-12-01T14:16:22.779Z,101025.72
2022-12-01T14:19:43.598Z,101045.12
2022-12-01T14:23:13.827Z,101038.78
2022-12-01T14:26:19.549Z,101037.63
2022-12-01T14:29:29.368Z,101020.09
2022-12-01T14:32:31.676Z,101041.72
2022-12-01T14:35:34.279Z,101035.12
2022-12-01T14:38:36.942Z,101040.66
2022-12-01T14:41:45.219Z,101038.41
2022-12-01T14:44:51.545Z,101038.66
2022-12-01T14:48:02.350Z,101033.91
2022-12-01T14:51:30.000Z,101034.44
2022-12-01T14:54:49.646Z,101041.88
2022-12-01T14:58:06.362Z,101026.87
2022-12-01T15:01:12.523Z,101030.69
2022-12-01T15:04:15.517Z,101034.56
2022-12-01T15:07:23.122Z,101050.34
2022-12-01T15:10:29.220Z,101031.41
2022-12-01T15:13:41.098Z,101034.63
2022-12-01T15:16:43.578Z,101047.47
2022-12-01T15:19:46.297Z,101046.38
2022-12-01T15:22:49.445Z,101029.69
2022-12-01T15:25:52.178Z,101051.06
2022-12-01T15:29:06.423Z,101051.59
2022-12-01T15:32:15.637Z,101051.84
2022-12-01T15:35:23.108Z,101045.44
2022-12-01T15:38:32.573Z,101052.06
2022-12-01T15:41:40.215Z,101048.69
2022-12-01T15:44:42.903Z,101048.69
2022-12-01T15:47:48.157Z,101034.50
2022-12-01T15:51:05.826Z,101051.41
2022-12-01T15:54:19.468Z,101038.62
2022-12-01T15:57:22.518Z,101030.00
2022-12-01T16:00:25.457Z,101047.53
2022-12-01T16:03:28.675Z,101053.31
2022-12-01T16:06:34.776Z,101053.00
2022-12-01T16:09:40.419Z,101046.44
2022-12-01T16:12:42.726Z,101059.78
2022-12-01T16:15:45.357Z,101056.12
2022-12-01T16:18:56.374Z,101061.91
2022-12-01T16:22:11.145Z,101063.59
2022-12-01T16:25:33.461Z,101050.87
2022-12-01T16:28:36.210Z,101055.16
2022-12-01T16:31:58.594Z,101052.97
2022-12-01T16:35:01.942Z,101053.50
2022-12-01T16:38:22.670Z,101036.19
2022-12-01T16:41:38.055Z,101051.31
2022-12-01T16:44:42.736Z,101048.47
2022-12-01T16:47:48.183Z,101052.62
2022-12-01T16:50:52.051Z,101057.84
2022-12-01T16:53:55.810Z,101043.31
2022-12-01T16:56:58.071Z,101053.31
2022-12-01T17:00:00.600Z,101053.66
2022-12-01T17:03:04.439Z,101060.28
2022-12-01T17:06:07.542Z,101051.16
2022-12-01T17:09:09.800Z,101059.19
2022-12-01T17:12:12.366Z,101069.12
2022-12-01T17:15:15.622Z,101047.25
2022-12-01T17:18:19.459Z,101068.38
2022-12-01T17:21:22.225Z,101057.91
2022-12-01T17:24:25.997Z,101062.00
2022-12-01T17:27:29.735Z,101052.16
2022-12-01T17:30:32.264Z,101056.00
2022-12-01T17:33:36.291Z,101066.63
2022-12-01T17:36:38.834Z,101053.44
2022-12-01T17:39:41.179Z,101054.97
2022-12-01T17:42:50.001Z,101069.06
2022-12-01T17:45:52.813Z,101071.19
2022-12-01T17:48:55.524Z,101058.28
2022-12-01T17:51:57.842Z,101073.59
2022-12-01T17:55:00.489Z,101055.06
2022-12-01T17:58:03.847Z,101078.91
2022-12-01T18:01:11.748Z,101069.72
2022-12-01T18:04:15.921Z,101076.56
2022-12-01T18:07:18.277Z,101079.34
2022-12-01T18:10:21.351Z,101074.37
2022-12-01T18:13:23.716Z,101073.91
2022-12-01T18:16:29.456Z,101059.59
2022-12-01T18:19:31.846Z,101078.00
2022-12-01T18:22:34.440Z,101082.09
2022-12-01T18:25:37.978Z,101057.84
2022-12-01T18:28:40.516Z,101063.38
2022-12-01T18:31:43.671Z,101055.31
2022-12-01T18:34:46.594Z,101052.06
2022-12-01T18:37:48.877Z,101080.66
2022-12-01T18:40:51.383Z,101079.59
2022-12-01T18:43:54.185Z,101061.09
2022-12-01T18:46:57.842Z,101067.09
2022-12-01T18:50:00.150Z,101084.47
2022-12-01T18:53:02.714Z,101070.69
2022-12-01T18:56:10.280Z,101066.84
2022-12-01T18:59:16.863Z,101062.41
2022-12-01T19:02:19.908Z,101084.16
2022-12-01T19:05:23.216Z,101077.69
2022-12-01T19:08:25.459Z,101081.88
2022-12-01T19:11:29.022Z,101080.13
2022-12-01T19:14:31.320Z,101056.12
2022-12-01T19:17:34.146Z,101098.25
2022-12-01T19:20:37.969Z,101083.28
2022-12-01T19:23:40.756Z,101074.31
2022-12-01T19:26:43.122Z,101099.47
2022-12-01T19:29:45.933Z,101079.62
2022-12-01T19:32:48.545Z,101098.19
2022-12-01T19:35:51.065Z,101097.94
2022-12-01T19:38:57.487Z,101095.69
2022-12-01T19:42:00.274Z,101086.59
2022-12-01T19:45:02.714Z,101089.00
2022-12-01T19:48:06.061Z,101067.00
2022-12-01T19:51:26.614Z,101072.84
2022-12-01T19:54:30.425Z,101088.16
2022-12-01T19:57:32.749Z,101079.72
2022-12-01T20:00:35.368Z,101095.28
2022-12-01T20:03:40.741Z,101095.16
2022-12-01T20:06:43.203Z,101099.13
2022-12-01T20:09:49.891Z,101080.47
2022-12-01T20:12:52.781Z,101085.72
2022-12-01T20:16:01.547Z,101082.25
2022-12-01T20:19:06.229Z,101103.06
2022-12-01T20:22:08.764Z,101111.81
2022-12-01T20:25:11.095Z,101110.25
2022-12-01T20:28:13.627Z,101107.28
2022-12-01T20:31:21.119Z,101110.66
2022-12-01T20:34:31.413Z,101109.94
2022-12-01T20:37:33.727Z,101109.94
2022-12-01T20:40:36.323Z,101106.16
2022-12-01T20:43:38.592Z,101096.59
2022-12-01T20:46:41.177Z,101101.37
2022-12-01T20:49:43.566Z,101097.16
2022-12-01T20:52:46.075Z,101127.34
2022-12-01T20:55:49.255Z,101124.47
2022-12-01T20:58:52.851Z,101108.78
2022-12-01T21:01:55.227Z,101122.91
2022-12-01T21:04:59.376Z,101128.53
2022-12-01T21:08:02.500Z,101129.84
2022-12-01T21:11:07.855Z,101133.56
2022-12-01T21:14:32.514Z,101133.66
2022-12-01T21:17:43.689Z,101134.16
2022-12-01T21:20:48.811Z,101137.12
2022-12-01T21:24:21.598Z,101138.84
2022-12-01T21:27:25.055Z,101136.41
2022-12-01T21:30:29.829Z,101141.72
2022-12-01T21:33:34.513Z,101119.09
2022-12-01T21:36:37.126Z,101142.16
2022-12-01T21:39:39.421Z,101128.66
2022-12-01T21:42:41.927Z,101144.56
2022-12-01T21:45:44.274Z,101129.97
2022-12-01T21:48:47.366Z,101126.62
2022-12-01T21:51:51.931Z,101121.00
2022-12-01T21:54:54.806Z,101129.13
2022-12-01T21:57:57.114Z,101130.69
2022-12-01T22:01:00.519Z,101146.34
2022-12-01T22:04:12.887Z,101132.69
2022-12-01T22:07:15.359Z,101143.97
2022-12-01T22:10:52.123Z,101146.56
2022-12-01T22:14:12.918Z,101150.03
2022-12-01T22:17:20.544Z,101126.09
2022-12-01T22:20:22.987Z,101149.06
2022-12-01T22:23:33.855Z,101150.97
2022-12-01T22:26:38.136Z,101148.84
2022-12-01T22:29:44.460Z,101141.78
2022-12-01T22:32:58.282Z,101141.06
2022-12-01T22:36:01.149Z,101141.06
2022-12-01T22:39:22.870Z,101137.12
2022-12-01T22:42:35.513Z,101121.44
2022-12-01T22:45:38.594Z,101128.97
2022-12-01T22:48:45.025Z,101137.94
2022-12-01T22:51:50.182Z,101136.50
2022-12-01T22:54:52.856Z,101134.94
2022-12-01T22:57:55.610Z,101104.22
2022-12-01T23:01:07.750Z,101105.53
2022-12-01T23:04:19.265Z,101109.97
2022-12-01T23:07:35.198Z,101125.50
2022-12-01T23:10:39.851Z,101121.22
2022-12-01T23:13:42.315Z,101125.16
2022-12-01T23:16:44.646Z,101118.81
2022-12-01T23:19:48.990Z,101132.69
2022-12-01T23:22:56.203Z,101117.47
2022-12-01T23:26:01.296Z,101127.69
2022-12-01T23:29:03.533Z,101128.13
2022-12-01T23:32:06.140Z,101131.72
2022-12-01T23:35:16.164Z,101110.78
2022-12-01T23:38:29.689Z,101114.09
2022-12-01T23:41:33.380Z,101138.91
2022-12-01T23:44:40.861Z,101140.91
2022-12-01T23:47:43.211Z,101145.94
2022-12-01T23:50:47.497Z,101122.59
2022-12-01T23:53:52.091Z,101141.03
2022-12-01T23:56:58.771Z,101142.56
